createdAt,value
2022-09-13T00:00:55.415Z,75791.72
2022-09-13T00:03:25.386Z,75795.97
2022-09-13T00:05:53.596Z,75808.66
2022-09-13T00:08:21.358Z,75817.13
2022-09-13T00:10:50.927Z,75817.13
2022-09-13T00:13:19.543Z,75821.34
2022-09-13T00:15:49.337Z,75836.16
2022-09-13T00:18:17.686Z,75842.53
2022-09-13T00:20:45.603Z,75848.88
2022-09-13T00:23:13.801Z,75859.44
2022-09-13T00:25:41.694Z,75846.75
2022-09-13T00:28:11.014Z,75850.97
2022-09-13T00:30:39.149Z,75857.34
2022-09-13T00:33:06.832Z,75863.69
2022-09-13T00:35:35.836Z,75870.03
2022-09-13T00:38:03.572Z,75861.56
2022-09-13T00:40:31.613Z,75865.78
2022-09-13T00:42:59.619Z,75861.56
2022-09-13T00:45:29.659Z,75863.69
2022-09-13T00:47:59.452Z,75872.16
2022-09-13T00:50:32.526Z,75878.50
2022-09-13T00:53:02.927Z,75889.06
2022-09-13T00:55:33.097Z,75886.97
2022-09-13T00:58:04.606Z,75891.19
2022-09-13T01:00:34.107Z,75895.44
2022-09-13T01:03:04.005Z,75891.19
2022-09-13T01:05:34.534Z,75884.84
2022-09-13T01:08:02.728Z,75882.72
2022-09-13T01:10:31.898Z,75880.63
2022-09-13T01:13:04.679Z,75889.06
2022-09-13T01:15:33.985Z,75884.84
2022-09-13T01:18:01.723Z,75884.84
2022-09-13T01:20:41.726Z,75910.25
2022-09-13T01:23:45.106Z,75922.94
2022-09-13T01:26:36.934Z,75939.88
2022-09-13T01:29:29.114Z,75973.75
2022-09-13T01:32:03.375Z,75973.75
2022-09-13T01:34:38.484Z,75969.50
2022-09-13T01:37:15.911Z,75971.63
2022-09-13T01:39:55.573Z,75975.84
2022-09-13T01:42:30.090Z,75973.75
2022-09-13T01:45:06.742Z,75980.09
2022-09-13T01:47:41.369Z,75982.19
2022-09-13T01:50:14.858Z,75982.19
2022-09-13T01:52:49.165Z,75980.09
2022-09-13T01:55:24.949Z,75994.91
2022-09-13T01:57:55.806Z,76022.41
2022-09-13T02:00:23.654Z,76011.84
2022-09-13T02:02:55.558Z,76011.84
2022-09-13T02:05:29.140Z,76024.53
2022-09-13T02:07:59.307Z,76005.47
2022-09-13T02:10:30.059Z,76007.59
2022-09-13T02:12:59.578Z,76005.47
2022-09-13T02:15:29.080Z,76009.72
2022-09-13T02:18:06.045Z,76011.84
2022-09-13T02:20:37.266Z,76024.53
2022-09-13T02:23:09.181Z,76035.13
2022-09-13T02:25:38.288Z,76037.22
2022-09-13T02:28:11.234Z,76045.69
2022-09-13T02:30:41.548Z,76039.34
2022-09-13T02:33:12.774Z,76030.88
2022-09-13T02:35:45.088Z,76028.75
2022-09-13T02:38:16.642Z,76024.53
2022-09-13T02:40:47.953Z,76011.84
2022-09-13T02:43:19.403Z,76022.41
2022-09-13T02:45:49.369Z,76041.47
2022-09-13T02:48:23.691Z,76045.69
2022-09-13T02:50:58.871Z,76037.22
2022-09-13T02:53:30.701Z,76037.22
2022-09-13T02:56:04.948Z,76052.03
2022-09-13T02:58:36.619Z,76045.69
2022-09-13T03:01:04.800Z,76049.94
2022-09-13T03:03:34.194Z,76049.94
2022-09-13T03:06:01.919Z,76056.28
2022-09-13T03:08:30.476Z,76062.63
2022-09-13T03:11:04.974Z,76056.28
2022-09-13T03:13:42.081Z,76049.94
2022-09-13T03:16:21.656Z,76049.94
2022-09-13T03:19:02.401Z,76037.22
2022-09-13T03:21:42.315Z,76041.47
2022-09-13T03:24:16.899Z,76049.94
2022-09-13T03:26:51.348Z,76066.88
2022-09-13T03:29:31.479Z,76056.28
2022-09-13T03:32:07.212Z,76058.41
2022-09-13T03:34:44.205Z,76058.41
2022-09-13T03:37:17.486Z,76062.63
2022-09-13T03:39:50.112Z,76064.75
2022-09-13T03:42:23.091Z,76075.31
2022-09-13T03:44:52.100Z,76071.09
2022-09-13T03:47:21.877Z,76071.09
2022-09-13T03:49:52.751Z,76066.88
2022-09-13T03:52:20.969Z,76062.63
2022-09-13T03:54:49.424Z,76062.63
2022-09-13T03:57:18.811Z,76054.16
2022-09-13T03:59:48.422Z,76073.22
2022-09-13T04:02:17.463Z,76092.25
2022-09-13T04:04:46.262Z,76100.72
2022-09-13T04:07:16.927Z,76088.03
2022-09-13T04:09:45.869Z,76083.78
2022-09-13T04:12:14.267Z,76098.59
2022-09-13T04:14:42.842Z,76100.72
2022-09-13T04:17:11.123Z,76104.97
2022-09-13T04:19:39.195Z,76111.31
2022-09-13T04:22:07.230Z,76117.66
2022-09-13T04:24:37.623Z,76132.47
2022-09-13T04:27:05.745Z,76132.47
2022-09-13T04:29:34.024Z,76126.13
2022-09-13T04:32:02.124Z,76121.91
2022-09-13T04:34:29.998Z,76119.78
2022-09-13T04:36:58.001Z,76115.53
2022-09-13T04:39:25.974Z,76111.31
2022-09-13T04:41:55.477Z,76100.72
2022-09-13T04:44:24.562Z,76096.50
2022-09-13T04:46:52.784Z,76081.69
2022-09-13T04:49:22.138Z,76081.69
2022-09-13T04:51:51.103Z,76075.31
2022-09-13T04:54:19.088Z,76064.75
2022-09-13T04:56:47.819Z,76054.16
2022-09-13T04:59:17.662Z,76041.47
2022-09-13T05:02:47.464Z,76018.19
2022-09-13T05:05:15.477Z,76009.72
2022-09-13T05:07:43.299Z,76003.38
2022-09-13T05:10:12.218Z,75988.56
2022-09-13T05:12:41.829Z,75975.84
2022-09-13T05:15:12.620Z,75961.03
2022-09-13T05:17:40.716Z,75963.16
2022-09-13T05:20:09.529Z,75958.91
2022-09-13T05:22:37.305Z,75956.81
2022-09-13T05:25:08.241Z,75948.34
2022-09-13T05:27:36.198Z,75939.88
2022-09-13T05:30:04.907Z,75922.94
2022-09-13T05:32:34.282Z,75916.59
2022-09-13T05:35:01.932Z,75914.47
2022-09-13T05:37:30.140Z,75895.44
2022-09-13T05:40:11.333Z,75891.19
2022-09-13T05:42:40.123Z,75876.38
2022-09-13T05:45:09.577Z,75870.03
2022-09-13T05:47:39.325Z,75855.22
2022-09-13T05:50:10.652Z,75836.16
2022-09-13T05:52:39.937Z,75819.25
2022-09-13T05:55:08.464Z,75798.06
2022-09-13T05:57:37.735Z,75783.25
2022-09-13T06:00:06.628Z,75759.97
2022-09-13T06:02:34.679Z,75732.47
2022-09-13T06:05:05.530Z,75709.19
2022-09-13T06:07:33.289Z,75685.91
2022-09-13T06:10:01.003Z,75668.97
2022-09-13T06:12:28.957Z,75647.81
2022-09-13T06:14:56.812Z,75624.53
2022-09-13T06:17:24.580Z,75594.91
2022-09-13T06:19:52.513Z,75584.31
2022-09-13T06:22:21.965Z,75556.81
2022-09-13T06:24:50.556Z,75531.41
2022-09-13T06:27:18.729Z,75506.03
2022-09-13T06:29:48.429Z,75482.75
2022-09-13T06:32:17.337Z,75465.81
2022-09-13T06:34:45.483Z,75446.78
2022-09-13T06:37:14.532Z,75421.38
2022-09-13T06:39:44.021Z,75400.22
2022-09-13T06:42:11.692Z,75381.16
2022-09-13T06:44:39.482Z,75379.06
2022-09-13T06:47:07.392Z,75355.78
2022-09-13T06:49:35.114Z,75340.97
2022-09-13T06:52:03.070Z,75330.38
2022-09-13T06:54:33.944Z,75309.22
2022-09-13T06:57:04.198Z,75302.88
2022-09-13T06:59:32.197Z,75283.81
2022-09-13T07:01:59.999Z,75269.00
2022-09-13T07:04:31.759Z,75252.09
2022-09-13T07:07:00.637Z,75249.97
2022-09-13T07:09:28.792Z,75233.03
2022-09-13T07:11:58.228Z,75218.22
2022-09-13T07:14:29.462Z,75211.88
2022-09-13T07:16:57.860Z,75194.94
2022-09-13T07:19:27.524Z,75173.78
2022-09-13T07:21:56.102Z,75152.63
2022-09-13T07:24:24.542Z,75139.94
2022-09-13T07:26:52.283Z,75131.47
2022-09-13T07:29:22.825Z,75125.13
2022-09-13T07:31:54.158Z,75118.78
2022-09-13T07:34:23.225Z,75084.91
2022-09-13T07:36:52.498Z,75093.38
2022-09-13T07:39:23.040Z,75089.16
2022-09-13T07:41:51.297Z,75067.97
2022-09-13T07:44:19.210Z,75061.63
2022-09-13T07:46:47.151Z,75063.75
2022-09-13T07:49:20.448Z,75046.81
2022-09-13T07:51:51.330Z,75034.13
2022-09-13T07:54:20.320Z,75019.31
2022-09-13T07:56:50.652Z,75000.28
2022-09-13T07:59:19.499Z,74951.59
2022-09-13T08:01:48.337Z,74924.09
2022-09-13T08:04:19.955Z,74936.78
2022-09-13T08:06:47.909Z,74932.56
2022-09-13T08:09:16.380Z,74911.41
2022-09-13T08:11:45.736Z,74928.34
2022-09-13T08:14:15.026Z,74896.59
2022-09-13T08:16:42.974Z,74858.50
2022-09-13T08:19:13.946Z,74828.88
2022-09-13T08:21:43.789Z,74835.22
2022-09-13T08:24:15.965Z,74869.09
2022-09-13T08:26:44.162Z,74869.09
2022-09-13T08:29:12.802Z,74881.78
2022-09-13T08:31:41.173Z,74858.50
2022-09-13T08:34:10.321Z,74822.53
2022-09-13T08:36:37.973Z,74797.16
2022-09-13T08:39:07.310Z,74792.91
2022-09-13T08:41:52.353Z,74835.22
2022-09-13T08:44:26.653Z,74826.78
2022-09-13T08:46:56.783Z,74822.53
2022-09-13T08:49:27.714Z,74824.66
2022-09-13T08:51:57.689Z,74792.91
2022-09-13T08:54:27.627Z,74784.44
2022-09-13T08:57:00.493Z,74759.06
2022-09-13T08:59:34.770Z,74797.16
2022-09-13T09:02:14.898Z,74824.66
2022-09-13T09:04:47.406Z,74801.38
2022-09-13T09:07:18.977Z,74805.63
2022-09-13T09:09:52.027Z,74824.66
2022-09-13T09:12:26.471Z,74826.78
2022-09-13T09:15:00.782Z,74824.66
2022-09-13T09:17:31.645Z,74831.00
2022-09-13T09:20:08.610Z,74837.34
2022-09-13T09:22:37.224Z,74826.78
2022-09-13T09:25:07.402Z,74792.91
2022-09-13T09:27:35.355Z,74767.53
2022-09-13T09:30:03.361Z,74773.88
2022-09-13T09:32:53.954Z,74807.72
2022-09-13T09:35:32.660Z,74807.72
2022-09-13T09:38:20.213Z,74801.38
2022-09-13T09:40:49.704Z,74790.81
2022-09-13T09:43:21.804Z,74788.69
2022-09-13T09:45:57.682Z,74792.91
2022-09-13T09:48:29.115Z,74799.25
2022-09-13T09:50:59.081Z,74790.81
2022-09-13T09:53:33.617Z,74763.28
2022-09-13T09:56:15.253Z,74735.78
2022-09-13T09:58:45.396Z,74710.41
2022-09-13T10:01:21.362Z,74718.88
2022-09-13T10:03:55.139Z,74714.63
2022-09-13T10:06:25.294Z,74699.81
2022-09-13T10:09:01.471Z,74716.75
2022-09-13T10:11:56.339Z,74742.13
2022-09-13T10:14:33.439Z,74759.06
2022-09-13T10:17:19.291Z,74756.94
2022-09-13T10:19:59.468Z,74742.13
2022-09-13T10:22:27.969Z,74733.66
2022-09-13T10:24:57.399Z,74744.25
2022-09-13T10:27:39.515Z,74759.06
2022-09-13T10:30:28.885Z,74746.38
2022-09-13T10:32:57.502Z,74737.91
2022-09-13T10:35:25.648Z,74731.56
2022-09-13T10:37:53.821Z,74710.41
2022-09-13T10:40:27.002Z,74701.94
2022-09-13T10:42:58.912Z,74693.47
2022-09-13T10:45:27.007Z,74708.28
2022-09-13T10:47:56.992Z,74727.31
2022-09-13T10:50:27.140Z,74708.28
2022-09-13T10:52:55.912Z,74661.72
2022-09-13T10:55:35.201Z,74670.19
2022-09-13T10:58:19.309Z,74640.56
2022-09-13T11:01:22.644Z,74655.38
2022-09-13T11:04:32.968Z,74653.28
2022-09-13T11:07:10.001Z,74640.56
2022-09-13T11:09:42.992Z,74621.53
2022-09-13T11:12:18.562Z,74661.72
2022-09-13T11:14:58.234Z,74649.03
2022-09-13T11:17:35.178Z,74653.28
2022-09-13T11:20:18.231Z,74668.09
2022-09-13T11:23:13.687Z,74687.13
2022-09-13T11:25:53.051Z,74687.13
2022-09-13T11:28:29.659Z,74695.59
2022-09-13T11:31:08.420Z,74704.06
2022-09-13T11:33:45.708Z,74697.69
2022-09-13T11:36:31.177Z,74701.94
2022-09-13T11:39:05.853Z,74720.97
2022-09-13T11:41:40.550Z,74710.41
2022-09-13T11:44:30.257Z,74704.06
2022-09-13T11:47:06.200Z,74697.69
2022-09-13T11:50:03.541Z,74695.59
2022-09-13T11:52:39.987Z,74699.81
2022-09-13T11:55:18.381Z,74678.66
2022-09-13T11:57:48.517Z,74676.53
2022-09-13T12:00:21.389Z,74678.66
2022-09-13T12:02:57.962Z,74682.91
2022-09-13T12:05:28.750Z,74682.91
2022-09-13T12:08:00.407Z,74670.19
2022-09-13T12:10:31.672Z,74655.38
2022-09-13T12:13:01.558Z,74644.81
2022-09-13T12:15:35.835Z,74640.56
2022-09-13T12:18:09.208Z,74640.56
2022-09-13T12:20:39.520Z,74634.22
2022-09-13T12:23:13.259Z,74613.06
2022-09-13T12:25:48.166Z,74564.41
2022-09-13T12:28:20.276Z,74517.88
2022-09-13T12:30:52.288Z,74509.41
2022-09-13T12:33:21.785Z,74524.22
2022-09-13T12:36:00.314Z,74503.06
2022-09-13T12:38:52.354Z,74481.91
2022-09-13T12:41:23.371Z,74471.31
2022-09-13T12:44:33.936Z,74492.47
2022-09-13T12:47:41.825Z,74479.78
2022-09-13T12:50:42.994Z,74460.75
2022-09-13T12:53:36.118Z,74450.16
2022-09-13T12:56:05.404Z,74460.75
2022-09-13T12:59:01.410Z,74462.84
2022-09-13T13:01:31.207Z,74445.94
2022-09-13T13:04:03.392Z,74467.09
2022-09-13T13:06:35.772Z,74458.63
2022-09-13T13:09:06.447Z,74469.19
2022-09-13T13:11:45.181Z,74450.16
2022-09-13T13:14:30.270Z,74454.41
2022-09-13T13:17:32.522Z,74395.16
2022-09-13T13:20:00.597Z,74403.63
2022-09-13T13:22:54.884Z,74441.69
2022-09-13T13:25:37.751Z,74454.41
2022-09-13T13:28:14.671Z,74435.34
2022-09-13T13:30:52.585Z,74452.28
2022-09-13T13:33:23.681Z,74454.41
2022-09-13T13:35:52.139Z,74462.84
2022-09-13T13:38:49.741Z,74471.31
2022-09-13T13:41:43.508Z,74458.63
2022-09-13T13:44:44.826Z,74467.09
2022-09-13T13:48:04.349Z,74475.56
2022-09-13T13:50:35.037Z,74484.00
2022-09-13T13:53:23.972Z,74513.63
2022-09-13T13:56:09.484Z,74513.63
2022-09-13T13:58:47.617Z,74507.28
2022-09-13T14:01:20.822Z,74513.63
2022-09-13T14:04:14.500Z,74522.09
2022-09-13T14:06:50.250Z,74530.56
2022-09-13T14:09:33.231Z,74541.13
2022-09-13T14:12:15.813Z,74551.72
2022-09-13T14:14:54.373Z,74558.06
2022-09-13T14:17:55.862Z,74549.59
2022-09-13T14:20:25.626Z,74551.72
2022-09-13T14:22:53.359Z,74543.25
2022-09-13T14:25:26.284Z,74549.59
2022-09-13T14:27:58.011Z,74558.06
2022-09-13T14:30:27.825Z,74568.63
2022-09-13T14:32:58.039Z,74564.41
2022-09-13T14:35:30.133Z,74575.00
2022-09-13T14:38:12.413Z,74570.75
2022-09-13T14:40:41.131Z,74581.34
2022-09-13T14:43:24.444Z,74581.34
2022-09-13T14:45:55.754Z,74577.09
2022-09-13T14:48:27.214Z,74581.34
2022-09-13T14:51:12.103Z,74581.34
2022-09-13T14:53:41.613Z,74585.56
2022-09-13T14:56:14.790Z,74577.09
2022-09-13T14:58:46.136Z,74591.91
2022-09-13T15:01:15.529Z,74604.59
2022-09-13T15:03:44.294Z,74598.25
2022-09-13T15:06:24.248Z,74606.72
2022-09-13T15:08:53.230Z,74610.97
2022-09-13T15:11:33.649Z,74608.84
2022-09-13T15:14:26.796Z,74619.41
2022-09-13T15:16:57.084Z,74613.06
2022-09-13T15:19:33.565Z,74621.53
2022-09-13T15:22:16.147Z,74627.88
2022-09-13T15:24:47.002Z,74627.88
2022-09-13T15:27:21.116Z,74623.66
2022-09-13T15:29:57.193Z,74623.66
2022-09-13T15:32:31.954Z,74621.53
2022-09-13T15:35:01.624Z,74627.88
2022-09-13T15:37:35.024Z,74640.56
2022-09-13T15:40:13.207Z,74625.78
2022-09-13T15:42:41.196Z,74625.78
2022-09-13T15:45:15.566Z,74642.69
2022-09-13T15:47:46.333Z,74636.34
2022-09-13T15:50:21.963Z,74646.94
2022-09-13T15:52:49.811Z,74651.16
2022-09-13T15:55:17.851Z,74655.38
2022-09-13T15:57:46.832Z,74661.72
2022-09-13T16:00:21.063Z,74657.50
2022-09-13T16:02:50.772Z,74657.50
2022-09-13T16:05:19.014Z,74663.84
2022-09-13T16:07:47.079Z,74663.84
2022-09-13T16:10:19.276Z,74655.38
2022-09-13T16:12:47.528Z,74665.97
2022-09-13T16:15:15.607Z,74668.09
2022-09-13T16:17:45.144Z,74668.09
2022-09-13T16:20:15.302Z,74670.19
2022-09-13T16:22:43.365Z,74670.19
2022-09-13T16:25:14.415Z,74674.44
2022-09-13T16:27:44.857Z,74682.91
2022-09-13T16:30:16.238Z,74670.19
2022-09-13T16:32:45.954Z,74674.44
2022-09-13T16:35:15.372Z,74682.91
2022-09-13T16:37:44.679Z,74678.66
2022-09-13T16:40:17.612Z,74676.53
2022-09-13T16:42:45.514Z,74687.13
2022-09-13T16:45:13.762Z,74693.47
2022-09-13T16:47:42.344Z,74689.25
2022-09-13T16:50:54.090Z,74687.13
2022-09-13T16:53:23.507Z,74691.34
2022-09-13T16:55:53.678Z,74695.59
2022-09-13T16:58:31.925Z,74699.81
2022-09-13T17:00:59.811Z,74706.16
2022-09-13T17:03:28.755Z,74712.50
2022-09-13T17:06:02.776Z,74712.50
2022-09-13T17:09:28.466Z,74720.97
2022-09-13T17:11:54.939Z,74731.56
2022-09-13T17:14:25.601Z,74744.25
2022-09-13T17:16:55.046Z,74748.47
2022-09-13T17:19:26.716Z,74754.84
2022-09-13T17:21:57.683Z,74767.53
2022-09-13T17:24:29.031Z,74763.28
2022-09-13T17:26:57.766Z,74771.75
2022-09-13T17:29:31.185Z,74773.88
2022-09-13T17:32:00.082Z,74776.00
2022-09-13T17:34:30.859Z,74763.28
2022-09-13T17:37:00.723Z,74771.75
2022-09-13T17:39:32.906Z,74773.88
2022-09-13T17:42:02.741Z,74773.88
2022-09-13T17:44:31.853Z,74784.44
2022-09-13T17:47:02.816Z,74784.44
2022-09-13T17:49:32.267Z,74799.25
2022-09-13T17:52:08.721Z,74792.91
2022-09-13T17:54:40.245Z,74799.25
2022-09-13T17:57:12.556Z,74801.38
2022-09-13T17:59:41.573Z,74814.06
2022-09-13T18:02:12.416Z,74814.06
2022-09-13T18:07:45.118Z,74811.97
2022-09-13T18:10:49.133Z,74809.84
2022-09-13T18:13:27.521Z,74803.50
2022-09-13T18:16:02.080Z,74805.63
2022-09-13T18:18:32.068Z,74801.38
2022-09-13T18:21:03.367Z,74803.50
2022-09-13T18:23:32.938Z,74799.25
2022-09-13T18:26:15.385Z,74790.81
2022-09-13T18:28:47.997Z,74792.91
2022-09-13T18:31:37.393Z,74782.34
2022-09-13T18:34:12.957Z,74784.44
2022-09-13T18:37:02.023Z,74776.00
2022-09-13T18:39:33.653Z,74776.00
2022-09-13T18:42:09.441Z,74782.34
2022-09-13T18:44:41.774Z,74778.09
2022-09-13T18:47:14.752Z,74771.75
2022-09-13T18:49:43.647Z,74765.41
2022-09-13T18:52:14.192Z,74765.41
2022-09-13T18:54:44.760Z,74761.19
2022-09-13T18:57:21.210Z,74756.94
2022-09-13T19:00:23.353Z,74754.84
2022-09-13T19:03:11.260Z,74754.84
2022-09-13T19:06:07.158Z,74748.47
2022-09-13T19:08:47.234Z,74748.47
2022-09-13T19:14:48.380Z,74748.47
2022-09-13T19:20:15.908Z,74748.47
2022-09-13T19:22:48.590Z,74737.91
2022-09-13T19:25:16.675Z,74735.78
2022-09-13T19:27:44.739Z,74735.78
2022-09-13T19:30:19.321Z,74735.78
2022-09-13T19:32:47.741Z,74740.03
2022-09-13T19:35:23.542Z,74731.56
2022-09-13T19:37:51.405Z,74727.31
2022-09-13T19:40:19.675Z,74725.22
2022-09-13T19:42:48.325Z,74727.31
2022-09-13T19:45:17.845Z,74723.09
2022-09-13T19:50:38.662Z,74725.22
2022-09-13T19:53:07.444Z,74720.97
2022-09-13T19:55:35.213Z,74716.75
2022-09-13T19:58:03.073Z,74716.75
2022-09-13T20:00:35.453Z,74716.75
2022-09-13T20:03:03.590Z,74714.63
2022-09-13T20:05:33.868Z,74712.50
2022-09-13T20:08:02.457Z,74708.28
2022-09-13T20:10:31.253Z,74704.06
2022-09-13T20:12:59.606Z,74699.81
2022-09-13T20:15:32.343Z,74699.81
2022-09-13T20:18:01.663Z,74691.34
2022-09-13T20:20:29.493Z,74687.13
2022-09-13T20:26:57.678Z,74682.91
2022-09-13T20:29:25.985Z,74682.91
2022-09-13T20:31:55.667Z,74685.00
2022-09-13T20:34:25.248Z,74680.78
2022-09-13T20:36:53.057Z,74682.91
2022-09-13T20:39:21.112Z,74693.47
2022-09-13T20:41:50.138Z,74693.47
2022-09-13T20:44:18.430Z,74689.25
2022-09-13T20:46:48.212Z,74693.47
2022-09-13T20:49:16.792Z,74693.47
2022-09-13T20:51:46.624Z,74682.91
2022-09-13T20:54:14.608Z,74685.00
2022-09-13T20:56:43.043Z,74695.59
2022-09-13T20:59:11.387Z,74695.59
2022-09-13T21:01:39.580Z,74695.59
2022-09-13T21:04:07.686Z,74699.81
2022-09-13T21:06:39.055Z,74704.06
2022-09-13T21:09:17.319Z,74701.94
2022-09-13T21:11:45.690Z,74704.06
2022-09-13T21:14:14.231Z,74704.06
2022-09-13T21:16:42.410Z,74691.34
2022-09-13T21:19:11.412Z,74687.13
2022-09-13T21:21:41.085Z,74685.00
2022-09-13T21:24:13.493Z,74687.13
2022-09-13T21:26:42.726Z,74687.13
2022-09-13T21:29:11.287Z,74678.66
2022-09-13T21:31:39.566Z,74689.25
2022-09-13T21:34:09.402Z,74704.06
2022-09-13T21:36:37.247Z,74727.31
2022-09-13T21:39:05.723Z,74729.44
2022-09-13T21:41:35.274Z,74735.78
2022-09-13T21:44:03.344Z,74737.91
2022-09-13T21:46:33.663Z,74733.66
2022-09-13T21:49:06.406Z,74742.13
2022-09-13T21:51:36.291Z,74731.56
2022-09-13T21:54:06.724Z,74744.25
2022-09-13T21:56:38.283Z,74733.66
2022-09-13T21:59:08.599Z,74737.91
2022-09-13T22:01:38.525Z,74735.78
2022-09-13T22:04:07.397Z,74720.97
2022-09-13T22:06:35.693Z,74720.97
2022-09-13T22:09:06.089Z,74714.63
2022-09-13T22:11:38.592Z,74716.75
2022-09-13T22:14:07.325Z,74712.50
2022-09-13T22:16:37.089Z,74708.28
2022-09-13T22:19:09.240Z,74708.28
2022-09-13T22:21:38.997Z,74716.75
2022-09-13T22:24:07.838Z,74712.50
2022-09-13T22:26:39.425Z,74712.50
2022-09-13T22:29:07.661Z,74718.88
2022-09-13T22:31:37.169Z,74720.97
2022-09-13T22:34:05.094Z,74725.22
2022-09-13T22:36:33.029Z,74735.78
2022-09-13T22:39:00.706Z,74737.91
2022-09-13T22:41:29.806Z,74740.03
2022-09-13T22:43:59.407Z,74735.78
2022-09-13T22:46:29.881Z,74737.91
2022-09-13T22:48:57.931Z,74735.78
2022-09-13T22:51:25.980Z,74742.13
2022-09-13T22:53:54.747Z,74750.59
2022-09-13T22:56:24.918Z,74744.25
2022-09-13T22:58:55.047Z,74746.38
2022-09-13T23:01:25.083Z,74750.59
2022-09-13T23:03:53.169Z,74759.06
2022-09-13T23:06:22.707Z,74759.06
2022-09-13T23:08:51.767Z,74767.53
2022-09-13T23:11:22.135Z,74767.53
2022-09-13T23:13:51.841Z,74773.88
2022-09-13T23:16:21.951Z,74778.09
2022-09-13T23:18:51.693Z,74784.44
2022-09-13T23:21:20.091Z,74786.56
2022-09-13T23:23:47.871Z,74788.69
2022-09-13T23:26:18.916Z,74790.81
2022-09-13T23:28:48.836Z,74788.69
2022-09-13T23:31:17.967Z,74792.91
2022-09-13T23:33:46.774Z,74797.16
2022-09-13T23:36:25.386Z,74797.16
2022-09-13T23:38:54.912Z,74792.91
2022-09-13T23:41:23.365Z,74790.81
2022-09-13T23:43:51.339Z,74795.03
2022-09-13T23:46:19.789Z,74788.69
2022-09-13T23:48:47.511Z,74790.81
2022-09-13T23:51:18.823Z,74797.16
2022-09-13T23:53:47.106Z,74797.16
2022-09-13T23:56:16.707Z,74790.81
2022-09-13T23:58:44.556Z,74801.38
